createdAt,value
2022-11-07T00:00:11.709Z,7.70
2022-11-07T00:02:40.362Z,8.10
2022-11-07T00:05:10.505Z,7.57
2022-11-07T00:07:38.810Z,7.20
2022-11-07T00:10:08.202Z,7.03
2022-11-07T00:12:37.166Z,6.50
2022-11-07T00:15:06.621Z,6.67
2022-11-07T00:17:36.319Z,7.40
2022-11-07T00:20:07.608Z,7.27
2022-11-07T00:22:40.182Z,6.80
2022-11-07T00:25:12.178Z,7.00
2022-11-07T00:27:40.970Z,6.40
2022-11-07T00:30:10.078Z,6.70
2022-11-07T00:32:38.533Z,6.33
2022-11-07T00:35:07.387Z,7.20
2022-11-07T00:37:38.751Z,6.60
2022-11-07T00:40:10.695Z,6.30
2022-11-07T00:42:40.078Z,6.13
2022-11-07T00:45:09.574Z,6.70
2022-11-07T00:47:37.950Z,6.50
2022-11-07T00:50:07.614Z,6.30
2022-11-07T00:52:36.042Z,6.70
2022-11-07T00:55:09.261Z,6.90
2022-11-07T00:57:37.776Z,6.10
2022-11-07T01:00:07.509Z,6.20
2022-11-07T01:02:36.141Z,5.33
2022-11-07T01:05:12.867Z,5.83
2022-11-07T01:07:41.250Z,5.93
2022-11-07T01:10:11.114Z,5.57
2022-11-07T01:12:43.044Z,5.87
2022-11-07T01:15:12.569Z,6.40
2022-11-07T01:17:40.891Z,5.67
2022-11-07T01:20:10.889Z,6.00
2022-11-07T01:22:39.269Z,5.67
2022-11-07T01:25:10.028Z,6.47
2022-11-07T01:27:39.774Z,5.53
2022-11-07T01:30:10.166Z,5.80
2022-11-07T01:32:38.511Z,5.70
2022-11-07T01:35:08.121Z,5.93
2022-11-07T01:37:36.650Z,6.10
2022-11-07T01:40:05.865Z,6.07
2022-11-07T01:42:34.355Z,5.60
2022-11-07T01:45:04.471Z,5.40
2022-11-07T01:47:38.508Z,5.80
2022-11-07T01:50:08.392Z,6.27
2022-11-07T01:52:40.399Z,6.07
2022-11-07T01:55:14.285Z,6.37
2022-11-07T01:57:48.899Z,6.37
2022-11-07T02:00:27.151Z,6.30
2022-11-07T02:02:59.131Z,5.87
2022-11-07T02:05:32.841Z,5.73
2022-11-07T02:08:03.073Z,6.03
2022-11-07T02:10:31.888Z,5.70
2022-11-07T02:13:01.757Z,5.70
2022-11-07T02:15:31.645Z,5.63
2022-11-07T02:18:01.238Z,6.10
2022-11-07T02:20:30.384Z,5.33
2022-11-07T02:23:02.047Z,5.17
2022-11-07T02:25:31.999Z,4.77
2022-11-07T02:28:04.835Z,5.70
2022-11-07T02:30:34.939Z,5.13
2022-11-07T02:33:03.645Z,4.70
2022-11-07T02:35:39.305Z,5.90
2022-11-07T02:38:10.620Z,5.00
2022-11-07T02:40:41.571Z,5.40
2022-11-07T02:43:12.640Z,4.73
2022-11-07T02:45:45.378Z,5.33
2022-11-07T02:48:13.665Z,5.13
2022-11-07T02:50:42.730Z,4.90
2022-11-07T02:53:11.898Z,4.60
2022-11-07T02:55:42.702Z,4.63
2022-11-07T02:58:11.919Z,4.50
2022-11-07T03:00:40.706Z,4.80
2022-11-07T03:03:09.651Z,4.80
2022-11-07T03:05:38.281Z,4.93
2022-11-07T03:08:07.176Z,5.33
2022-11-07T03:10:36.941Z,4.87
2022-11-07T03:13:10.039Z,4.57
2022-11-07T03:15:46.169Z,5.03
2022-11-07T03:18:15.906Z,4.67
2022-11-07T03:20:44.482Z,5.07
2022-11-07T03:23:14.849Z,4.63
2022-11-07T03:25:49.099Z,5.10
2022-11-07T03:28:19.680Z,5.00
2022-11-07T03:30:50.920Z,5.20
2022-11-07T03:33:20.269Z,5.57
2022-11-07T03:35:49.744Z,5.43
2022-11-07T03:38:20.048Z,4.83
2022-11-07T03:40:49.652Z,5.37
2022-11-07T03:43:20.219Z,4.77
2022-11-07T03:45:48.943Z,4.87
2022-11-07T03:48:20.635Z,5.10
2022-11-07T03:50:50.017Z,5.37
2022-11-07T03:53:24.867Z,4.50
2022-11-07T03:56:14.849Z,4.67
2022-11-07T03:58:58.700Z,4.20
2022-11-07T04:01:28.893Z,4.60
2022-11-07T04:03:59.019Z,4.30
2022-11-07T04:06:28.022Z,5.10
2022-11-07T04:08:58.028Z,4.30
2022-11-07T04:11:58.198Z,4.53
2022-11-07T04:14:45.252Z,4.50
2022-11-07T04:17:19.814Z,4.50
2022-11-07T04:19:50.992Z,5.13
2022-11-07T04:22:20.537Z,4.30
2022-11-07T04:24:49.677Z,4.40
2022-11-07T04:27:37.169Z,4.37
2022-11-07T04:30:20.095Z,4.50
2022-11-07T04:32:50.507Z,4.27
2022-11-07T04:35:21.816Z,4.70
2022-11-07T04:37:50.724Z,4.60
2022-11-07T04:40:23.782Z,4.27
2022-11-07T04:42:52.794Z,4.40
2022-11-07T04:45:23.921Z,3.97
2022-11-07T04:47:53.710Z,4.20
2022-11-07T04:50:22.760Z,4.10
2022-11-07T04:52:51.834Z,4.10
2022-11-07T04:55:22.802Z,4.50
2022-11-07T04:57:53.853Z,4.37
2022-11-07T05:00:24.543Z,4.30
2022-11-07T05:02:53.505Z,4.50
2022-11-07T05:05:22.722Z,4.17
2022-11-07T05:07:52.240Z,4.30
2022-11-07T05:10:26.372Z,4.27
2022-11-07T05:12:56.531Z,4.13
2022-11-07T05:15:26.333Z,4.30
2022-11-07T05:17:57.239Z,3.90
2022-11-07T05:20:30.126Z,4.13
2022-11-07T05:23:19.959Z,3.80
2022-11-07T05:26:02.483Z,4.20
2022-11-07T05:28:38.820Z,4.53
2022-11-07T05:31:14.696Z,4.40
2022-11-07T05:33:44.675Z,4.20
2022-11-07T05:36:16.818Z,3.90
2022-11-07T05:38:48.270Z,4.20
2022-11-07T05:41:19.213Z,4.00
2022-11-07T05:43:49.962Z,4.70
2022-11-07T05:46:20.302Z,3.80
2022-11-07T05:48:55.406Z,4.00
2022-11-07T05:51:27.975Z,3.67
2022-11-07T05:53:58.610Z,3.70
2022-11-07T05:56:27.656Z,3.40
2022-11-07T05:58:59.674Z,3.60
2022-11-07T06:01:34.832Z,3.60
2022-11-07T06:04:05.244Z,3.20
2022-11-07T06:06:35.317Z,3.47
2022-11-07T06:09:06.714Z,3.30
2022-11-07T06:11:35.499Z,3.63
2022-11-07T06:14:06.480Z,2.97
2022-11-07T06:16:37.528Z,2.90
2022-11-07T06:19:06.587Z,3.10
2022-11-07T06:21:35.915Z,3.70
2022-11-07T06:24:04.483Z,3.10
2022-11-07T06:26:32.909Z,3.10
2022-11-07T06:29:13.363Z,3.30
2022-11-07T06:31:45.112Z,3.70
2022-11-07T06:34:13.912Z,3.97
2022-11-07T06:36:43.630Z,3.70
2022-11-07T06:39:16.715Z,3.73
2022-11-07T06:41:45.102Z,4.17
2022-11-07T06:44:14.674Z,3.63
2022-11-07T06:46:48.224Z,4.03
2022-11-07T06:49:19.525Z,3.77
2022-11-07T06:52:07.676Z,4.30
2022-11-07T06:54:36.332Z,4.40
2022-11-07T06:57:05.515Z,4.03
2022-11-07T06:59:33.817Z,4.83
2022-11-07T07:02:04.215Z,4.53
2022-11-07T07:04:34.632Z,4.60
2022-11-07T07:07:22.650Z,5.00
2022-11-07T07:09:53.083Z,4.60
2022-11-07T07:12:21.427Z,4.70
2022-11-07T07:14:50.501Z,4.87
2022-11-07T07:17:27.740Z,5.03
2022-11-07T07:19:56.425Z,4.73
2022-11-07T07:22:31.590Z,4.43
2022-11-07T07:25:00.126Z,4.70
2022-11-07T07:27:29.776Z,4.60
2022-11-07T07:29:58.220Z,4.67
2022-11-07T07:32:28.091Z,4.77
2022-11-07T07:34:56.892Z,5.20
2022-11-07T07:37:25.426Z,4.60
2022-11-07T07:39:53.754Z,5.77
2022-11-07T07:42:22.646Z,5.50
2022-11-07T07:44:50.966Z,5.07
2022-11-07T07:47:20.769Z,4.93
2022-11-07T07:49:50.674Z,4.97
2022-11-07T07:52:19.661Z,4.93
2022-11-07T07:54:48.530Z,4.80
2022-11-07T07:57:17.554Z,5.00
2022-11-07T07:59:48.358Z,4.63
2022-11-07T08:02:22.911Z,4.20
2022-11-07T08:04:53.464Z,4.93
2022-11-07T08:07:22.539Z,4.63
2022-11-07T08:10:39.701Z,4.67
2022-11-07T08:13:00.180Z,4.63
2022-11-07T08:15:30.173Z,4.03
2022-11-07T08:18:03.128Z,4.03
2022-11-07T08:20:35.069Z,3.53
2022-11-07T08:23:08.649Z,3.77
2022-11-07T08:25:53.381Z,3.63
2022-11-07T08:28:24.496Z,3.50
2022-11-07T08:30:57.676Z,3.43
2022-11-07T08:33:26.822Z,3.43
2022-11-07T08:36:00.533Z,3.00
2022-11-07T08:38:29.460Z,3.43
2022-11-07T08:40:59.156Z,3.07
2022-11-07T08:43:29.343Z,3.03
2022-11-07T08:45:58.270Z,2.80
2022-11-07T08:48:27.562Z,3.23
2022-11-07T08:51:01.678Z,2.87
2022-11-07T08:53:36.701Z,2.83
2022-11-07T08:56:11.280Z,3.13
2022-11-07T08:58:40.025Z,2.40
2022-11-07T09:01:09.443Z,2.93
2022-11-07T09:03:58.354Z,2.77
2022-11-07T09:06:28.955Z,2.80
2022-11-07T09:08:58.267Z,2.40
2022-11-07T09:11:27.263Z,2.20
2022-11-07T09:13:56.347Z,2.43
2022-11-07T09:16:31.144Z,2.23
2022-11-07T09:19:00.129Z,2.37
2022-11-07T09:21:30.191Z,1.93
2022-11-07T09:23:58.892Z,1.97
2022-11-07T09:26:30.441Z,2.13
2022-11-07T09:29:01.290Z,2.33
2022-11-07T09:31:30.661Z,2.20
2022-11-07T09:34:05.161Z,2.27
2022-11-07T09:36:54.678Z,3.33
2022-11-07T09:39:29.688Z,4.17
2022-11-07T09:42:04.554Z,6.27
2022-11-07T09:44:51.655Z,6.33
2022-11-07T09:47:25.355Z,7.27
2022-11-07T09:50:04.800Z,6.30
2022-11-07T09:52:42.248Z,3.87
2022-11-07T09:55:18.699Z,4.40
2022-11-07T09:57:57.089Z,3.93
2022-11-07T10:00:32.677Z,3.30
2022-11-07T10:03:03.575Z,2.70
2022-11-07T10:05:42.743Z,2.57
2022-11-07T10:08:30.725Z,2.77
2022-11-07T10:11:14.183Z,2.87
2022-11-07T10:14:03.773Z,2.67
2022-11-07T10:16:44.766Z,2.80
2022-11-07T10:19:30.903Z,4.10
2022-11-07T10:22:12.761Z,3.53
2022-11-07T10:24:55.954Z,3.37
2022-11-07T10:27:27.998Z,2.53
2022-11-07T10:30:00.254Z,2.37
2022-11-07T10:32:54.797Z,2.77
2022-11-07T10:35:29.081Z,2.80
2022-11-07T10:38:20.584Z,3.20
2022-11-07T10:41:16.373Z,2.93
2022-11-07T10:43:49.910Z,2.63
2022-11-07T10:46:22.761Z,2.53
2022-11-07T10:48:57.535Z,2.50
2022-11-07T10:51:36.782Z,2.53
2022-11-07T10:54:06.119Z,2.30
2022-11-07T10:56:49.734Z,2.40
2022-11-07T10:59:26.187Z,1.80
2022-11-07T11:01:58.754Z,2.00
2022-11-07T11:04:30.058Z,2.00
2022-11-07T11:07:00.421Z,2.27
2022-11-07T11:09:34.523Z,2.23
2022-11-07T11:12:14.572Z,2.00
2022-11-07T11:14:42.990Z,2.00
2022-11-07T11:17:26.373Z,1.83
2022-11-07T11:19:57.903Z,4.17
2022-11-07T11:22:30.684Z,4.00
2022-11-07T11:25:03.987Z,4.57
2022-11-07T11:27:36.210Z,5.77
2022-11-07T11:30:09.454Z,5.17
2022-11-07T11:32:42.126Z,3.70
2022-11-07T11:35:41.389Z,5.03
2022-11-07T11:38:17.717Z,4.37
2022-11-07T11:40:52.631Z,5.57
2022-11-07T11:43:39.740Z,4.87
2022-11-07T11:46:13.769Z,4.77
2022-11-07T11:48:49.419Z,5.13
2022-11-07T11:51:23.577Z,4.63
2022-11-07T11:53:52.022Z,4.07
2022-11-07T11:56:40.153Z,3.60
2022-11-07T11:59:50.212Z,2.83
2022-11-07T12:02:47.847Z,2.40
2022-11-07T12:06:04.768Z,2.80
2022-11-07T12:09:07.782Z,4.03
2022-11-07T12:11:46.803Z,4.80
2022-11-07T12:14:57.014Z,3.60
2022-11-07T12:17:34.320Z,3.00
2022-11-07T12:20:18.635Z,2.07
2022-11-07T12:23:18.090Z,2.83
2022-11-07T12:25:53.352Z,2.70
2022-11-07T12:28:38.095Z,2.50
2022-11-07T12:31:21.780Z,2.40
2022-11-07T12:34:00.342Z,2.40
2022-11-07T12:36:56.385Z,2.37
2022-11-07T12:39:53.366Z,2.23
2022-11-07T12:42:34.323Z,1.80
2022-11-07T12:45:13.711Z,1.97
2022-11-07T12:48:12.994Z,1.30
2022-11-07T12:50:59.493Z,1.77
2022-11-07T12:53:41.970Z,1.70
2022-11-07T12:56:15.325Z,1.70
2022-11-07T12:58:47.280Z,1.73
2022-11-07T13:01:20.125Z,1.67
2022-11-07T13:04:02.220Z,2.20
2022-11-07T13:06:36.601Z,3.40
2022-11-07T13:09:20.825Z,3.10
2022-11-07T13:11:56.653Z,2.97
2022-11-07T13:14:37.075Z,4.13
2022-11-07T13:17:19.082Z,2.37
2022-11-07T13:20:00.480Z,2.70
2022-11-07T13:22:36.654Z,2.63
2022-11-07T13:25:23.693Z,2.50
2022-11-07T13:28:05.316Z,2.83
2022-11-07T13:30:40.046Z,2.60
2022-11-07T13:33:26.951Z,2.40
2022-11-07T13:35:59.313Z,2.80
2022-11-07T13:38:35.619Z,2.37
2022-11-07T13:41:06.245Z,2.13
2022-11-07T13:43:43.047Z,2.20
2022-11-07T13:46:18.730Z,2.27
2022-11-07T13:48:50.961Z,2.00
2022-11-07T13:51:27.731Z,2.23
2022-11-07T13:54:10.729Z,2.27
2022-11-07T13:56:45.464Z,2.50
2022-11-07T13:59:33.847Z,2.00
2022-11-07T14:02:07.219Z,2.83
2022-11-07T14:04:44.531Z,2.43
2022-11-07T14:07:32.862Z,2.70
2022-11-07T14:10:02.896Z,2.30
2022-11-07T14:12:40.167Z,2.37
2022-11-07T14:15:16.932Z,2.10
2022-11-07T14:17:47.418Z,3.10
2022-11-07T14:20:36.206Z,2.70
2022-11-07T14:23:15.246Z,2.63
2022-11-07T14:25:57.759Z,2.30
2022-11-07T14:28:37.047Z,2.07
2022-11-07T14:31:10.801Z,1.40
2022-11-07T14:33:39.953Z,1.60
2022-11-07T14:36:14.043Z,1.80
2022-11-07T14:38:49.284Z,1.50
2022-11-07T14:41:19.878Z,1.60
2022-11-07T14:43:50.005Z,1.83
2022-11-07T14:46:24.070Z,1.77
2022-11-07T14:48:54.047Z,1.90
2022-11-07T14:51:25.631Z,1.83
2022-11-07T14:54:02.016Z,1.67
2022-11-07T14:56:34.240Z,1.90
2022-11-07T14:59:09.197Z,4.33
2022-11-07T15:01:37.960Z,4.13
2022-11-07T15:04:17.710Z,3.23
2022-11-07T15:06:52.769Z,3.17
2022-11-07T15:09:35.668Z,3.83
2022-11-07T15:12:26.055Z,4.90
2022-11-07T15:15:06.824Z,2.53
2022-11-07T15:17:44.729Z,2.43
2022-11-07T15:20:24.080Z,2.47
2022-11-07T15:22:53.354Z,2.50
2022-11-07T15:25:33.320Z,2.17
2022-11-07T15:28:19.968Z,1.97
2022-11-07T15:30:51.067Z,1.80
2022-11-07T15:33:23.675Z,2.10
2022-11-07T15:35:55.895Z,2.47
2022-11-07T15:38:28.056Z,2.07
2022-11-07T15:41:12.709Z,2.20
2022-11-07T15:43:42.866Z,2.27
2022-11-07T15:46:23.071Z,2.73
2022-11-07T15:48:54.699Z,2.87
2022-11-07T15:51:27.413Z,3.57
2022-11-07T15:54:10.916Z,2.80
2022-11-07T15:56:41.925Z,3.73
2022-11-07T15:59:19.420Z,3.90
2022-11-07T16:02:02.918Z,2.97
2022-11-07T16:04:35.272Z,3.43
2022-11-07T16:07:08.018Z,3.30
2022-11-07T16:09:43.393Z,3.00
2022-11-07T16:12:14.481Z,2.90
2022-11-07T16:14:45.823Z,3.00
2022-11-07T16:17:17.866Z,3.57
2022-11-07T16:19:48.014Z,3.37
2022-11-07T16:22:17.726Z,4.13
2022-11-07T16:24:50.901Z,3.30
2022-11-07T16:27:22.335Z,3.20
2022-11-07T16:29:51.552Z,3.70
2022-11-07T16:32:20.479Z,3.77
2022-11-07T16:34:50.489Z,3.23
2022-11-07T16:37:19.431Z,3.77
2022-11-07T16:39:48.981Z,3.20
2022-11-07T16:42:18.069Z,4.50
2022-11-07T16:44:49.979Z,4.70
2022-11-07T16:47:19.103Z,4.07
2022-11-07T16:50:08.461Z,3.90
2022-11-07T16:52:39.526Z,3.13
2022-11-07T16:55:09.439Z,2.97
2022-11-07T16:57:41.276Z,2.77
2022-11-07T17:00:24.056Z,2.73
2022-11-07T17:02:54.250Z,2.60
2022-11-07T17:05:24.406Z,2.90
2022-11-07T17:07:56.045Z,2.57
2022-11-07T17:10:25.964Z,2.70
2022-11-07T17:12:57.209Z,3.17
2022-11-07T17:15:46.965Z,2.47
2022-11-07T17:18:20.473Z,2.70
2022-11-07T17:21:17.705Z,2.77
2022-11-07T17:23:53.882Z,3.17
2022-11-07T17:26:25.549Z,3.10
2022-11-07T17:28:56.718Z,3.43
2022-11-07T17:31:44.499Z,2.70
2022-11-07T17:34:27.027Z,2.80
2022-11-07T17:36:59.501Z,2.80
2022-11-07T17:39:28.213Z,2.80
2022-11-07T17:41:59.256Z,2.87
2022-11-07T17:44:27.701Z,3.00
2022-11-07T17:47:02.293Z,2.90
2022-11-07T17:49:31.208Z,2.80
2022-11-07T17:52:00.219Z,2.53
2022-11-07T17:54:30.519Z,2.93
2022-11-07T17:57:00.237Z,2.90
2022-11-07T17:59:34.985Z,3.53
2022-11-07T18:02:07.192Z,2.53
2022-11-07T18:04:45.145Z,2.57
2022-11-07T18:07:21.839Z,2.60
2022-11-07T18:09:51.411Z,2.27
2022-11-07T18:12:26.748Z,2.43
2022-11-07T18:14:56.810Z,2.50
2022-11-07T18:17:44.518Z,2.70
2022-11-07T18:20:15.766Z,2.43
2022-11-07T18:22:45.058Z,2.00
2022-11-07T18:25:14.004Z,2.53
2022-11-07T18:27:43.406Z,3.10
2022-11-07T18:30:14.602Z,2.73
2022-11-07T18:32:46.041Z,3.27
2022-11-07T18:35:18.185Z,2.80
2022-11-07T18:37:47.962Z,3.10
2022-11-07T18:40:21.537Z,2.50
2022-11-07T18:42:52.747Z,2.63
2022-11-07T18:45:23.380Z,2.27
2022-11-07T18:47:53.977Z,2.80
2022-11-07T18:50:28.329Z,2.13
2022-11-07T18:52:57.213Z,2.60
2022-11-07T18:55:27.614Z,2.50
2022-11-07T18:57:59.275Z,2.90
2022-11-07T19:00:29.118Z,3.07
2022-11-07T19:02:59.078Z,3.67
2022-11-07T19:05:28.588Z,3.20
2022-11-07T19:07:57.000Z,2.93
2022-11-07T19:10:25.597Z,3.03
2022-11-07T19:12:54.070Z,3.17
2022-11-07T19:15:25.108Z,2.80
2022-11-07T19:17:53.953Z,2.70
2022-11-07T19:20:25.124Z,2.97
2022-11-07T19:22:53.757Z,3.17
2022-11-07T19:25:22.573Z,3.40
2022-11-07T19:27:51.651Z,3.30
2022-11-07T19:30:20.281Z,3.40
2022-11-07T19:32:51.360Z,2.80
2022-11-07T19:35:19.977Z,3.03
2022-11-07T19:37:49.809Z,2.97
2022-11-07T19:40:18.383Z,3.03
2022-11-07T19:42:46.890Z,2.80
2022-11-07T19:45:15.604Z,3.03
2022-11-07T19:47:44.235Z,2.70
2022-11-07T19:50:13.058Z,3.20
2022-11-07T19:52:42.049Z,2.60
2022-11-07T19:55:12.480Z,3.07
2022-11-07T19:57:40.960Z,2.80
2022-11-07T20:00:11.101Z,2.93
2022-11-07T20:02:44.353Z,2.70
2022-11-07T20:05:16.396Z,2.87
2022-11-07T20:07:45.637Z,3.10
2022-11-07T20:10:16.237Z,2.73
2022-11-07T20:12:45.475Z,3.00
2022-11-07T20:15:18.026Z,3.40
2022-11-07T20:17:46.509Z,2.60
2022-11-07T20:20:15.537Z,3.17
2022-11-07T20:22:50.425Z,2.93
2022-11-07T20:25:20.526Z,2.80
2022-11-07T20:27:49.178Z,2.83
2022-11-07T20:30:18.002Z,2.87
2022-11-07T20:32:46.974Z,2.87
2022-11-07T20:35:15.428Z,2.80
2022-11-07T20:37:43.912Z,3.17
2022-11-07T20:40:14.817Z,3.60
2022-11-07T20:42:44.753Z,3.20
2022-11-07T20:45:13.637Z,3.40
2022-11-07T20:47:42.363Z,2.77
2022-11-07T20:50:11.225Z,2.60
2022-11-07T20:52:39.702Z,2.87
2022-11-07T20:55:08.966Z,2.83
2022-11-07T20:57:37.766Z,2.83
2022-11-07T21:00:10.604Z,3.03
2022-11-07T21:02:39.768Z,3.20
2022-11-07T21:05:17.691Z,2.93
2022-11-07T21:07:48.351Z,3.07
2022-11-07T21:10:17.237Z,3.50
2022-11-07T21:12:45.779Z,3.40
2022-11-07T21:15:16.007Z,3.67
2022-11-07T21:17:44.592Z,3.57
2022-11-07T21:20:13.516Z,3.07
2022-11-07T21:22:44.396Z,3.30
2022-11-07T21:25:13.340Z,3.23
2022-11-07T21:27:41.800Z,2.90
2022-11-07T21:30:10.896Z,2.97
2022-11-07T21:32:41.242Z,2.73
2022-11-07T21:35:10.570Z,3.13
2022-11-07T21:37:40.267Z,3.07
2022-11-07T21:40:10.846Z,2.80
2022-11-07T21:42:39.212Z,2.63
2022-11-07T21:45:08.478Z,2.70
2022-11-07T21:47:38.098Z,2.80
2022-11-07T21:50:42.900Z,3.10
2022-11-07T21:53:06.234Z,2.87
2022-11-07T21:55:34.672Z,3.07
2022-11-07T21:58:03.276Z,2.63
2022-11-07T22:00:35.760Z,2.77
2022-11-07T22:03:05.845Z,2.80
2022-11-07T22:05:39.217Z,3.70
2022-11-07T22:08:07.675Z,4.47
2022-11-07T22:10:36.386Z,5.40
2022-11-07T22:13:05.520Z,5.10
2022-11-07T22:15:34.095Z,4.53
2022-11-07T22:18:02.973Z,4.43
2022-11-07T22:20:31.457Z,3.43
2022-11-07T22:23:01.527Z,3.50
2022-11-07T22:25:30.198Z,3.60
2022-11-07T22:27:59.008Z,3.27
2022-11-07T22:30:27.564Z,3.20
2022-11-07T22:32:56.055Z,3.23
2022-11-07T22:35:24.462Z,3.03
2022-11-07T22:37:53.426Z,3.00
2022-11-07T22:40:23.223Z,2.77
2022-11-07T22:42:51.887Z,3.43
2022-11-07T22:45:20.494Z,2.50
2022-11-07T22:47:49.423Z,2.80
2022-11-07T22:50:18.194Z,2.63
2022-11-07T22:52:47.068Z,3.30
2022-11-07T22:55:15.779Z,3.30
2022-11-07T22:57:45.807Z,2.90
2022-11-07T23:00:21.569Z,2.97
2022-11-07T23:02:53.938Z,3.10
2022-11-07T23:05:23.847Z,2.80
2022-11-07T23:07:53.611Z,2.90
2022-11-07T23:10:22.770Z,2.77
2022-11-07T23:12:53.675Z,2.57
2022-11-07T23:15:22.017Z,2.63
2022-11-07T23:17:50.748Z,2.80
2022-11-07T23:20:35.916Z,2.93
2022-11-07T23:23:05.201Z,3.07
2022-11-07T23:25:36.925Z,2.83
2022-11-07T23:28:07.651Z,2.97
2022-11-07T23:30:39.049Z,3.20
2022-11-07T23:33:08.290Z,3.10
2022-11-07T23:35:37.886Z,3.00
2022-11-07T23:38:06.736Z,3.20
2022-11-07T23:40:36.554Z,3.10
2022-11-07T23:43:09.811Z,3.10
2022-11-07T23:45:56.156Z,2.83
2022-11-07T23:48:42.617Z,2.90
2022-11-07T23:51:13.592Z,2.80
2022-11-07T23:54:00.090Z,2.73
2022-11-07T23:56:29.647Z,2.80
2022-11-07T23:59:17.235Z,2.90
